Time;durP1;ratioP1;P1;durP2;ratioP2;P2;SDS_P1;SDS_P2;PMS_P1;PMS_P2;Temp;Humidity;BMP_temperature;BMP_pressure;BME280_temperature;BME280_humidity;BME280_pressure;Samples;Min_cycle;Max_cycle;Signal;HPM_P1;HPM_P2
2023/05/13 00:01:04;;;;;;;8.30;2.83;;;9.70;99.90;;;;;;4940143;28;20215;-83
2023/05/13 00:03:30;;;;;;;3.23;2.60;;;9.60;99.90;;;;;;4946448;28;20338;-83
2023/05/13 00:05:55;;;;;;;6.10;2.63;;;9.60;99.90;;;;;;4959103;28;20687;-83
2023/05/13 00:08:21;;;;;;;3.70;2.80;;;9.50;99.90;;;;;;4959729;28;20184;-83
2023/05/13 00:10:46;;;;;;;5.30;3.57;;;9.50;99.90;;;;;;4951871;28;20191;-83
2023/05/13 00:13:12;;;;;;;3.13;2.60;;;9.50;99.90;;;;;;4943468;28;20212;-84
2023/05/13 00:15:39;;;;;;;5.20;3.20;;;9.40;99.90;;;;;;4963651;28;20366;-84
2023/05/13 00:18:04;;;;;;;3.92;3.30;;;9.30;99.90;;;;;;4961992;28;20183;-83
2023/05/13 00:20:31;;;;;;;4.00;2.47;;;9.30;99.90;;;;;;4963382;28;20299;-84
2023/05/13 00:22:56;;;;;;;4.20;2.95;;;9.30;99.90;;;;;;4964278;28;20251;-84
2023/05/13 00:25:22;;;;;;;3.00;2.20;;;9.20;99.90;;;;;;4960820;28;20188;-83
2023/05/13 00:27:47;;;;;;;3.47;2.70;;;9.20;99.90;;;;;;4944665;28;20236;-84
2023/05/13 00:30:13;;;;;;;4.33;2.70;;;9.20;99.90;;;;;;4962010;28;20210;-83
2023/05/13 00:32:38;;;;;;;3.97;3.10;;;9.10;99.90;;;;;;4965143;28;20770;-83
2023/05/13 00:35:04;;;;;;;5.37;3.33;;;9.10;99.90;;;;;;4948247;28;20231;-83
2023/05/13 00:37:30;;;;;;;4.50;3.15;;;9.10;99.90;;;;;;4959982;28;20184;-84
2023/05/13 00:39:56;;;;;;;3.70;3.00;;;9.10;99.90;;;;;;4946179;28;20208;-84
2023/05/13 00:42:21;;;;;;;3.40;3.10;;;9.20;99.90;;;;;;4950262;28;20194;-84
2023/05/13 00:44:47;;;;;;;7.13;2.80;;;9.20;99.90;;;;;;4961765;28;20176;-83
2023/05/13 00:49:40;;;;;;;5.85;2.25;;;9.10;99.90;;;;;;4960863;28;20234;-86
2023/05/13 00:52:06;;;;;;;5.07;3.20;;;9.20;99.90;;;;;;4945689;28;20653;-86
2023/05/13 00:54:31;;;;;;;4.60;2.93;;;9.10;99.90;;;;;;4964094;28;21082;-88
2023/05/13 00:56:58;;;;;;;4.33;2.33;;;9.10;99.90;;;;;;4945849;28;20196;-88
2023/05/13 00:59:25;;;;;;;5.43;3.05;;;9.00;99.90;;;;;;4942505;28;20228;-88
2023/05/13 01:02:02;;;;;;;3.55;2.47;;;9.00;99.90;;;;;;4944911;28;20415;-87
2023/05/13 01:04:55;;;;;;;5.18;3.30;;;8.90;99.90;;;;;;4945972;28;20191;-89
2023/05/13 01:07:59;;;;;;;4.53;2.95;;;8.90;99.90;;;;;;4947424;28;20673;-88
2023/05/13 01:10:43;;;;;;;11.10;3.17;;;8.90;99.90;;;;;;4955783;28;20188;-88
2023/05/13 01:13:11;;;;;;;4.70;3.17;;;8.90;99.90;;;;;;4945516;28;20555;-88
2023/05/13 01:15:42;;;;;;;4.57;2.63;;;8.90;99.90;;;;;;4943529;28;20190;-87
2023/05/13 01:18:19;;;;;;;4.30;3.22;;;8.90;99.90;;;;;;4942610;28;20212;-88
2023/05/13 01:20:45;;;;;;;5.35;3.38;;;;;;;;;;4956132;28;20195;-87
2023/05/13 01:23:11;;;;;;;5.47;3.03;;;8.80;99.90;;;;;;4949525;28;20189;-88
2023/05/13 01:25:39;;;;;;;3.58;2.88;;;8.60;99.90;;;;;;4945626;28;20181;-85
2023/05/13 01:28:07;;;;;;;4.75;3.35;;;8.60;99.90;;;;;;4946258;28;20231;-86
2023/05/13 01:30:33;;;;;;;4.20;3.08;;;;;;;;;;4943505;28;20275;-86
2023/05/13 01:32:59;;;;;;;3.78;2.78;;;;;;;;;;4944921;28;20231;-87
2023/05/13 01:35:26;;;;;;;8.02;2.90;;;8.40;99.90;;;;;;4945414;28;20232;-85
2023/05/13 01:37:52;;;;;;;6.03;3.55;;;;;;;;;;4959528;28;20701;-86
2023/05/13 01:40:18;;;;;;;4.63;3.45;;;8.40;99.90;;;;;;4962105;28;20569;-86
2023/05/13 01:42:44;;;;;;;5.60;3.50;;;8.40;99.90;;;;;;4945828;28;20180;-86
2023/05/13 01:45:10;;;;;;;9.07;3.60;;;9.30;99.90;;;;;;4942880;28;20247;-87
2023/05/13 01:47:36;;;;;;;5.28;3.70;;;;;;;;;;4942837;28;20247;-86
2023/05/13 01:50:02;;;;;;;9.80;3.80;;;;;;;;;;4959466;28;20207;-86
2023/05/13 01:52:27;;;;;;;4.90;3.30;;;8.30;99.90;;;;;;4960941;28;20434;-87
2023/05/13 01:54:53;;;;;;;4.63;3.33;;;;;;;;;;4948908;28;20498;-85
2023/05/13 01:57:19;;;;;;;4.77;3.07;;;;;;;;;;4961471;28;20573;-87
2023/05/13 01:59:45;;;;;;;4.70;3.30;;;;;;;;;;4961485;28;20518;-86
2023/05/13 02:02:11;;;;;;;4.53;2.87;;;;;;;;;;4944338;28;20219;-86
2023/05/13 02:04:37;;;;;;;5.80;4.20;;;;;;;;;;4947512;28;20444;-86
2023/05/13 02:07:03;;;;;;;4.10;2.63;;;8.20;99.90;;;;;;4943984;28;20465;-86
2023/05/13 02:09:29;;;;;;;4.90;3.40;;;;;;;;;;4958873;28;20528;-87
2023/05/13 02:11:55;;;;;;;4.80;3.70;;;8.20;99.90;;;;;;4946259;28;20439;-87
2023/05/13 02:14:21;;;;;;;5.20;4.30;;;;;;;;;;4943033;28;20455;-87
2023/05/13 02:16:46;;;;;;;4.22;3.67;;;;;;;;;;4947071;28;20613;-86
2023/05/13 02:19:12;;;;;;;5.33;3.37;;;;;;;;;;4961787;28;20211;-86
2023/05/13 02:21:39;;;;;;;4.23;3.83;;;;;;;;;;4944405;28;20495;-86
2023/05/13 02:24:05;;;;;;;5.63;3.50;;;;;;;;;;4947089;28;20513;-86
2023/05/13 02:26:31;;;;;;;4.90;2.92;;;;;;;;;;4960162;28;20203;-86
2023/05/13 02:28:57;;;;;;;4.67;3.10;;;;;;;;;;4947331;28;20203;-85
2023/05/13 02:31:23;;;;;;;5.47;2.72;;;;;;;;;;4945505;28;20507;-86
2023/05/13 02:33:49;;;;;;;3.63;3.20;;;;;;;;;;4939569;28;20292;-87
2023/05/13 02:36:15;;;;;;;5.40;3.17;;;;;;;;;;4939652;28;20473;-86
2023/05/13 02:38:41;;;;;;;2.60;2.40;;;;;;;;;;4948674;28;20467;-84
2023/05/13 02:41:06;;;;;;;5.37;3.50;;;7.90;99.90;;;;;;4958389;28;20435;-85
2023/05/13 02:43:32;;;;;;;5.40;3.17;;;7.90;99.90;;;;;;4964649;28;20439;-85
2023/05/13 02:45:58;;;;;;;4.18;2.90;;;7.80;99.90;;;;;;4950790;28;20203;-84
2023/05/13 02:48:23;;;;;;;7.50;3.17;;;7.80;99.90;;;;;;4948165;28;20235;-85
2023/05/13 02:50:49;;;;;;;6.07;3.90;;;7.80;99.90;;;;;;4963754;28;20252;-85
2023/05/13 02:53:15;;;;;;;5.33;3.43;;;7.70;99.90;;;;;;4965038;28;20222;-86
2023/05/13 02:55:40;;;;;;;5.03;2.93;;;7.70;99.90;;;;;;4946642;28;20195;-84
2023/05/13 02:58:08;;;;;;;5.80;3.80;;;7.50;99.90;;;;;;4945134;28;20211;-85
2023/05/13 03:00:34;;;;;;;5.55;3.67;;;;;;;;;;4957473;28;20208;-85
2023/05/13 03:03:00;;;;;;;4.90;4.03;;;;;;;;;;4947474;28;20195;-87
2023/05/13 03:05:26;;;;;;;4.90;3.70;;;;;;;;;;4964523;28;20501;-87
2023/05/13 03:07:52;;;;;;;4.73;3.40;;;;;;;;;;4982414;28;20445;-86
2023/05/13 03:10:18;;;;;;;4.37;3.40;;;;;;;;;;5000717;28;20414;-87
2023/05/13 03:12:44;;;;;;;6.17;3.97;;;;;;;;;;4960556;28;20435;-87
2023/05/13 03:15:11;;;;;;;4.68;3.30;;;7.40;99.90;;;;;;4944732;28;20474;-88
2023/05/13 03:17:36;;;;;;;6.13;3.80;;;;;;;;;;4948411;28;20212;-88
2023/05/13 03:20:03;;;;;;;6.27;4.00;;;;;;;;;;4958619;28;20455;-86
2023/05/13 03:22:28;;;;;;;4.28;3.00;;;;;;;;;;4956426;28;20436;-86
2023/05/13 03:24:56;;;;;;;5.73;3.13;;;;;;;;;;4947423;28;20212;-87
2023/05/13 03:27:21;;;;;;;5.57;3.58;;;7.40;99.90;;;;;;4948449;28;20449;-87
2023/05/13 03:29:47;;;;;;;4.60;3.37;;;7.40;99.90;;;;;;4963691;28;20196;-87
2023/05/13 03:32:12;;;;;;;4.90;3.50;;;7.40;99.90;;;;;;4946929;28;20791;-87
2023/05/13 03:34:38;;;;;;;4.23;3.40;;;7.40;99.90;;;;;;4948573;28;20192;-86
2023/05/13 03:37:04;;;;;;;7.30;3.70;;;7.30;99.90;;;;;;4953317;28;20230;-87
2023/05/13 03:39:29;;;;;;;6.07;3.35;;;7.30;99.90;;;;;;4949898;28;20208;-88
2023/05/13 03:41:55;;;;;;;8.00;3.57;;;7.30;99.90;;;;;;4948769;28;20620;-87
2023/05/13 03:44:21;;;;;;;6.07;4.13;;;;;;;;;;4955490;28;20172;-89
2023/05/13 03:46:47;;;;;;;6.03;3.40;;;7.30;99.90;;;;;;4947468;28;20284;-87
2023/05/13 03:49:12;;;;;;;4.77;3.40;;;7.40;99.90;;;;;;4951000;28;20196;-88
2023/05/13 03:51:38;;;;;;;5.57;3.97;;;7.30;99.90;;;;;;4965647;28;20704;-88
2023/05/13 03:54:04;;;;;;;6.50;4.07;;;;;;;;;;4948741;28;20215;-88
2023/05/13 03:56:30;;;;;;;5.20;3.72;;;7.30;99.90;;;;;;4963310;28;20220;-88
2023/05/13 03:58:55;;;;;;;7.37;3.90;;;7.20;99.90;;;;;;4947737;28;20214;-88
2023/05/13 04:01:21;;;;;;;7.00;4.53;;;7.30;99.90;;;;;;4943692;29;20184;-86
2023/05/13 04:03:46;;;;;;;6.70;4.03;;;7.40;99.90;;;;;;4969324;28;20251;-87
2023/05/13 04:06:13;;;;;;;6.50;3.80;;;;;;;;;;4963840;28;20263;-86
2023/05/13 04:08:39;;;;;;;7.53;4.63;;;;;;;;;;4953944;28;20207;-86
2023/05/13 04:11:05;;;;;;;5.97;4.53;;;7.70;99.90;;;;;;4968835;28;20182;-86
2023/05/13 04:13:34;;;;;;;4.97;3.83;;;7.80;99.90;;;;;;4953284;28;20286;-86
2023/05/13 04:16:01;;;;;;;5.72;3.33;;;8.00;99.90;;;;;;4955295;28;20239;-87
2023/05/13 04:18:28;;;;;;;5.75;3.65;;;7.90;99.90;;;;;;4955402;28;20181;-88
2023/05/13 04:20:54;;;;;;;8.75;4.65;;;;;;;;;;4959541;28;20314;-87
2023/05/13 04:23:20;;;;;;;5.73;3.60;;;8.20;99.90;;;;;;4949252;28;20207;-87
2023/05/13 04:25:51;;;;;;;7.03;4.40;;;8.30;99.90;;;;;;4956308;28;20440;-87
2023/05/13 04:28:17;;;;;;;7.45;4.43;;;;;;;;;;4960819;28;20199;-88
2023/05/13 04:30:43;;;;;;;8.07;4.82;;;;;;;;;;4948901;28;20227;-87
2023/05/13 04:33:09;;;;;;;7.37;4.47;;;;;;;;;;4960480;28;20183;-88
2023/05/13 04:35:34;;;;;;;5.37;4.07;;;;;;;;;;4963870;28;20443;-87
2023/05/13 04:38:00;;;;;;;6.27;4.83;;;8.40;99.90;;;;;;4950571;28;20490;-88
2023/05/13 04:40:26;;;;;;;7.13;4.50;;;8.60;99.90;;;;;;4962609;28;20459;-87
2023/05/13 04:42:53;;;;;;;5.30;3.57;;;;;;;;;;4966991;28;20184;-89
2023/05/13 04:45:19;;;;;;;5.32;4.47;;;;;;;;;;4947922;28;20182;-89
2023/05/13 04:47:45;;;;;;;6.32;5.10;;;;;;;;;;4950566;28;20212;-87
2023/05/13 04:50:11;;;;;;;6.43;4.50;;;;;;;;;;4961189;28;20180;-88
2023/05/13 04:52:37;;;;;;;8.37;5.17;;;9.20;99.90;;;;;;4945750;28;20482;-89
2023/05/13 04:55:03;;;;;;;8.97;5.57;;;9.40;99.90;;;;;;4959281;28;20503;-88
2023/05/13 04:57:29;;;;;;;8.57;5.60;;;;;;;;;;4948269;28;20208;-88
2023/05/13 04:59:55;;;;;;;7.47;5.33;;;9.80;99.90;;;;;;4960748;28;20498;-89
2023/05/13 05:02:21;;;;;;;7.97;5.18;;;;;;;;;;4942435;28;20721;-88
2023/05/13 05:04:48;;;;;;;8.20;4.97;;;;;;;;;;4945268;28;20199;-88
2023/05/13 05:07:13;;;;;;;8.13;4.78;;;10.30;99.90;;;;;;4945248;28;20807;-88
2023/05/13 05:09:39;;;;;;;8.87;5.17;;;;;;;;;;4959313;28;20239;-88
2023/05/13 05:12:05;;;;;;;5.77;4.23;;;;;;;;;;4941099;28;20192;-88
2023/05/13 05:14:31;;;;;;;6.35;4.68;;;10.60;99.90;;;;;;4942142;28;20467;-88
2023/05/13 05:16:56;;;;;;;8.47;5.53;;;11.70;99.90;;;;;;4956297;28;20897;-88
2023/05/13 05:19:22;;;;;;;9.63;5.33;;;;;;;;;;4939249;28;20235;-88
2023/05/13 05:21:50;;;;;;;8.13;4.73;;;14.20;99.90;;;;;;4939366;28;21003;-88
2023/05/13 05:24:17;;;;;;;3.93;3.50;;;18.90;99.90;;;;;;4942856;28;20436;-88
2023/05/13 05:26:43;;;;;;;3.93;3.47;;;;;;;;;;4941330;28;20447;-87
2023/05/13 05:29:09;;;;;;;2.97;2.60;;;;;;;;;;4942095;28;20797;-88
2023/05/13 05:31:35;;;;;;;3.03;2.67;;;;;;;;;;4939739;28;20852;-87
2023/05/13 05:34:01;;;;;;;3.77;2.23;;;;;;;;;;4955072;28;21426;-88
2023/05/13 05:36:28;;;;;;;4.47;2.70;;;27.30;98.00;;;;;;4942662;28;20468;-86
2023/05/13 05:38:53;;;;;;;3.00;2.70;;;27.50;93.50;;;;;;4954366;28;20538;-87
2023/05/13 05:41:20;;;;;;;7.73;5.83;;;;;;;;;;4955193;28;20439;-87
2023/05/13 05:43:47;;;;;;;2.53;2.33;;;;;;;;;;4942479;28;20244;-87
2023/05/13 05:46:13;;;;;;;3.30;2.33;;;;;;;;;;4939139;28;20555;-87
2023/05/13 05:48:39;;;;;;;12.40;2.63;;;;;;;;;;4934130;28;20459;-86
2023/05/13 05:51:04;;;;;;;3.20;2.67;;;21.00;92.30;;;;;;4938845;28;20435;-86
2023/05/13 05:53:31;;;;;;;3.27;2.70;;;;;;;;;;4959250;28;20442;-86
2023/05/13 05:55:57;;;;;;;4.00;2.77;;;;;;;;;;4952527;28;20435;-86
2023/05/13 05:58:22;;;;;;;4.87;3.60;;;17.70;99.90;;;;;;4938686;28;20829;-87
2023/05/13 06:00:48;;;;;;;3.77;3.20;;;17.30;99.90;;;;;;4951383;28;20560;-88
2023/05/13 06:03:13;;;;;;;4.37;3.20;;;17.00;99.90;;;;;;4948959;28;20180;-86
2023/05/13 06:05:39;;;;;;;3.53;2.80;;;16.40;99.90;;;;;;4950317;28;20226;-86
2023/05/13 06:08:05;;;;;;;2.67;2.47;;;16.60;99.90;;;;;;4956092;28;20807;-86
2023/05/13 06:10:31;;;;;;;3.03;2.57;;;;;;;;;;4941428;28;20187;-84
2023/05/13 06:12:56;;;;;;;3.77;3.37;;;17.30;99.90;;;;;;4955065;28;20938;-86
2023/05/13 06:15:22;;;;;;;4.00;2.97;;;17.30;99.90;;;;;;4959263;28;20455;-86
2023/05/13 06:17:47;;;;;;;3.50;3.20;;;17.30;99.90;;;;;;4945817;28;20286;-86
2023/05/13 06:20:13;;;;;;;6.10;3.73;;;17.20;99.90;;;;;;4947714;28;20210;-86
2023/05/13 06:22:40;;;;;;;4.60;2.77;;;16.60;99.90;;;;;;4939904;28;20279;-85
2023/05/13 06:25:06;;;;;;;2.97;2.67;;;16.60;99.90;;;;;;4956406;28;20185;-86
2023/05/13 06:27:32;;;;;;;3.67;2.90;;;16.30;99.90;;;;;;4940711;28;20455;-85
2023/05/13 06:29:58;;;;;;;4.73;3.27;;;16.30;99.90;;;;;;4941880;28;20181;-86
2023/05/13 06:32:24;;;;;;;3.33;2.80;;;15.70;99.90;;;;;;4940539;28;20509;-84
2023/05/13 06:34:51;;;;;;;3.00;2.70;;;15.30;99.90;;;;;;4947121;28;20431;-85
2023/05/13 06:37:17;;;;;;;3.53;3.23;;;15.10;99.90;;;;;;4962084;28;20220;-84
2023/05/13 06:39:43;;;;;;;4.40;3.17;;;14.90;99.90;;;;;;4959292;28;20471;-84
2023/05/13 06:42:09;;;;;;;4.30;2.93;;;;;;;;;;4961427;28;20432;-84
2023/05/13 06:44:35;;;;;;;4.50;3.20;;;;;;;;;;4942378;28;20434;-83
2023/05/13 06:47:01;;;;;;;3.50;3.20;;;14.60;99.90;;;;;;4959432;28;21114;-83
2023/05/13 06:49:27;;;;;;;8.43;3.63;;;14.50;99.90;;;;;;4990252;23;20524;-82
2023/05/13 06:51:52;;;;;;;3.97;2.77;;;14.40;99.90;;;;;;4972511;28;20438;-82
2023/05/13 06:54:18;;;;;;;3.17;2.67;;;14.40;99.90;;;;;;4975856;28;20195;-83
2023/05/13 06:56:44;;;;;;;4.33;3.50;;;14.50;99.90;;;;;;4959838;28;20235;-83
2023/05/13 06:59:10;;;;;;;3.87;2.90;;;14.60;99.90;;;;;;4973210;28;20298;-82
2023/05/13 07:01:36;;;;;;;5.67;4.23;;;14.70;99.90;;;;;;4959502;28;20176;-82
2023/05/13 07:04:01;;;;;;;5.33;4.47;;;14.70;99.90;;;;;;4963420;28;20954;-82
2023/05/13 07:06:27;;;;;;;3.43;3.10;;;14.80;99.90;;;;;;4962591;28;20190;-83
2023/05/13 07:08:52;;;;;;;2.73;2.53;;;14.80;99.90;;;;;;4946802;28;20207;-83
2023/05/13 07:11:19;;;;;;;3.67;3.33;;;14.80;99.90;;;;;;4947580;28;20535;-83
2023/05/13 07:13:46;;;;;;;3.47;2.63;;;14.70;99.90;;;;;;4963842;28;20531;-83
2023/05/13 07:16:13;;;;;;;3.93;3.00;;;14.70;99.90;;;;;;4969047;28;20450;-84
2023/05/13 07:18:39;;;;;;;16.03;4.23;;;14.60;99.90;;;;;;4964373;28;20458;-82
2023/05/13 07:21:05;;;;;;;4.43;3.60;;;14.90;99.90;;;;;;4954874;28;20489;-82
2023/05/13 07:23:31;;;;;;;3.97;3.20;;;14.90;99.90;;;;;;4964893;28;20172;-82
2023/05/13 07:25:56;;;;;;;4.90;3.30;;;15.20;99.90;;;;;;4966078;28;20449;-82
2023/05/13 07:28:22;;;;;;;5.00;2.80;;;15.20;99.90;;;;;;4971249;28;20803;-82
2023/05/13 07:30:48;;;;;;;4.90;3.57;;;15.70;99.90;;;;;;4976854;28;20715;-82
2023/05/13 07:33:13;;;;;;;3.90;2.77;;;16.10;99.90;;;;;;4959777;28;20191;-82
2023/05/13 07:35:39;;;;;;;6.40;3.10;;;16.90;99.90;;;;;;4975793;28;20195;-82
2023/05/13 07:38:08;;;;;;;4.13;2.57;;;17.40;99.90;;;;;;4960449;28;20898;-81
2023/05/13 07:40:33;;;;;;;3.93;2.90;;;17.60;99.90;;;;;;4978431;28;20199;-82
2023/05/13 07:42:59;;;;;;;3.10;2.80;;;18.00;99.90;;;;;;4974339;28;20447;-82
2023/05/13 07:45:25;;;;;;;4.67;3.17;;;18.20;99.90;;;;;;4973938;28;20186;-82
2023/05/13 07:47:50;;;;;;;6.87;2.87;;;18.40;99.90;;;;;;4977665;28;20450;-82
2023/05/13 07:50:16;;;;;;;5.57;2.97;;;18.70;99.90;;;;;;4977599;28;20188;-82
2023/05/13 07:52:43;;;;;;;4.47;2.73;;;19.10;99.90;;;;;;4977466;28;20183;-82
2023/05/13 07:55:09;;;;;;;3.77;2.83;;;19.20;99.90;;;;;;4976006;28;20183;-82
2023/05/13 07:57:35;;;;;;;2.60;2.40;;;;;;;;;;4952673;28;20427;-82
2023/05/13 08:00:01;;;;;;;2.70;2.50;;;;;;;;;;4950819;28;22434;-82
2023/05/13 08:02:33;;;;;;;9.70;3.60;;;;;;;;;;4969017;28;21017;-82
2023/05/13 08:04:58;;;;;;;2.73;2.53;;;20.50;99.90;;;;;;4967374;28;20467;-82
2023/05/13 08:07:24;;;;;;;4.50;2.90;;;19.70;99.90;;;;;;4954681;28;20467;-81
2023/05/13 08:09:49;;;;;;;2.90;2.67;;;19.70;99.90;;;;;;4967294;28;20597;-82
2023/05/13 08:12:15;;;;;;;3.33;2.80;;;19.60;99.90;;;;;;4972417;28;20667;-82
2023/05/13 08:14:41;;;;;;;2.67;2.47;;;19.50;99.90;;;;;;4971318;28;20218;-82
2023/05/13 08:17:06;;;;;;;2.87;2.57;;;21.50;99.90;;;;;;4970644;28;20234;-82
2023/05/13 08:19:32;;;;;;;4.17;3.30;;;;;;;;;;4970764;28;20208;-82
2023/05/13 08:21:58;;;;;;;3.67;3.30;;;;;;;;;;4967952;28;20643;-82
2023/05/13 08:24:24;;;;;;;3.57;2.80;;;;;;;;;;4968689;28;20579;-82
2023/05/13 08:26:50;;;;;;;4.17;2.97;;;;;;;;;;4971462;28;20461;-82
2023/05/13 08:29:16;;;;;;;3.53;2.93;;;20.60;99.90;;;;;;4971520;28;20468;-82
2023/05/13 08:31:41;;;;;;;3.93;2.83;;;20.50;99.90;;;;;;4974271;28;20453;-82
2023/05/13 08:34:07;;;;;;;6.03;3.13;;;20.10;99.90;;;;;;4973105;28;20218;-82
2023/05/13 08:36:33;;;;;;;3.63;2.40;;;20.00;99.90;;;;;;4962294;28;20176;-82
2023/05/13 08:38:58;;;;;;;4.50;2.93;;;20.10;99.90;;;;;;4960783;28;20254;-82
2023/05/13 08:41:25;;;;;;;4.73;2.60;;;19.60;99.90;;;;;;4970099;28;20198;-82
2023/05/13 08:43:52;;;;;;;4.37;3.03;;;19.80;99.90;;;;;;4944511;28;20596;-82
2023/05/13 08:46:18;;;;;;;2.73;2.53;;;;;;;;;;4967119;28;20439;-81
2023/05/13 08:48:45;;;;;;;4.73;3.07;;;19.60;99.90;;;;;;4942872;28;20474;-82
2023/05/13 08:51:11;;;;;;;4.80;3.00;;;19.50;99.90;;;;;;4953432;28;20439;-82
2023/05/13 08:53:38;;;;;;;3.50;3.20;;;19.60;99.90;;;;;;4946852;28;20466;-81
2023/05/13 08:56:07;;;;;;;3.60;3.17;;;20.10;99.90;;;;;;4963771;28;20462;-81
2023/05/13 08:58:32;;;;;;;3.97;3.23;;;19.90;99.90;;;;;;4964608;28;20451;-82
2023/05/13 09:00:58;;;;;;;4.17;2.93;;;19.60;99.90;;;;;;4960378;28;20471;-82
2023/05/13 09:03:26;;;;;;;4.40;3.60;;;20.20;99.90;;;;;;4963701;28;20199;-82
2023/05/13 09:05:52;;;;;;;3.40;3.00;;;20.20;99.90;;;;;;4964360;28;20192;-82
2023/05/13 09:08:18;;;;;;;4.83;3.00;;;20.30;99.90;;;;;;4969024;28;20500;-82
2023/05/13 09:10:43;;;;;;;3.23;2.90;;;20.40;99.90;;;;;;4962299;28;20184;-82
2023/05/13 09:13:11;;;;;;;3.60;3.13;;;19.40;99.90;;;;;;4947988;28;20291;-82
2023/05/13 09:15:41;;;;;;;3.23;2.57;;;19.70;99.90;;;;;;4965559;28;20207;-82
2023/05/13 09:18:06;;;;;;;3.13;2.77;;;19.70;99.90;;;;;;4965221;28;20466;-82
2023/05/13 09:20:33;;;;;;;3.33;2.70;;;19.50;99.90;;;;;;4940349;28;20463;-81
2023/05/13 09:23:04;;;;;;;4.17;2.67;;;19.50;99.90;;;;;;4957473;28;20191;-81
2023/05/13 09:25:30;;;;;;;2.67;2.13;;;19.30;99.90;;;;;;4963737;28;20431;-81
2023/05/13 09:27:58;;;;;;;3.60;3.03;;;18.90;99.90;;;;;;4970087;28;20451;-81
2023/05/13 09:30:29;;;;;;;4.20;2.83;;;19.10;99.90;;;;;;4970810;28;20450;-81
2023/05/13 09:33:12;;;;;;;5.70;2.37;;;19.30;99.90;;;;;;4972028;28;20443;-81
2023/05/13 09:35:58;;;;;;;5.33;3.00;;;19.20;99.90;;;;;;4974481;28;20447;-81
2023/05/13 09:38:30;;;;;;;3.27;2.90;;;19.70;99.90;;;;;;4974239;28;20463;-81
2023/05/13 09:41:00;;;;;;;4.30;2.73;;;20.20;99.90;;;;;;4957169;28;20505;-81
2023/05/13 09:43:30;;;;;;;4.37;3.20;;;20.10;99.90;;;;;;4976903;28;20423;-81
2023/05/13 09:45:59;;;;;;;4.13;3.57;;;20.40;99.90;;;;;;4977442;28;20491;-81
2023/05/13 09:48:27;;;;;;;4.80;3.03;;;20.80;99.90;;;;;;4959667;28;20469;-81
2023/05/13 09:50:54;;;;;;;5.33;2.87;;;20.30;99.90;;;;;;4959066;28;20447;-81
2023/05/13 09:53:21;;;;;;;4.83;3.07;;;;;;;;;;4969944;28;20801;-80
2023/05/13 09:55:51;;;;;;;3.10;2.80;;;20.40;99.90;;;;;;4972162;28;20964;-81
2023/05/13 09:58:20;;;;;;;5.70;3.43;;;19.90;99.90;;;;;;4964481;28;20942;-81
2023/05/13 10:00:46;;;;;;;4.57;3.30;;;19.70;99.90;;;;;;4951357;28;20471;-83
2023/05/13 10:03:13;;;;;;;3.80;3.47;;;19.40;99.90;;;;;;4951321;28;20458;-82
2023/05/13 10:05:39;;;;;;;2.90;2.60;;;19.30;99.90;;;;;;4967700;28;20916;-81
2023/05/13 10:08:08;;;;;;;4.33;3.10;;;19.10;99.90;;;;;;4965985;28;21109;-81
2023/05/13 10:10:34;;;;;;;4.83;3.23;;;19.20;99.90;;;;;;4960181;28;20508;-80
2023/05/13 10:13:12;;;;;;;3.73;2.87;;;19.50;99.90;;;;;;4973903;28;20988;-81
2023/05/13 10:15:48;;;;;;;4.30;3.00;;;19.70;99.90;;;;;;4969413;28;20454;-81
2023/05/13 10:18:15;;;;;;;4.50;3.30;;;19.50;99.90;;;;;;4965859;28;20469;-81
2023/05/13 10:20:41;;;;;;;4.10;3.30;;;19.50;99.90;;;;;;4963247;28;20474;-81
2023/05/13 10:23:07;;;;;;;3.00;2.33;;;19.30;99.90;;;;;;4969319;28;20495;-81
2023/05/13 10:25:32;;;;;;;3.10;2.67;;;19.30;99.90;;;;;;4956072;28;20442;-82
2023/05/13 10:28:00;;;;;;;3.17;2.87;;;18.60;99.90;;;;;;4972133;28;20879;-82
2023/05/13 10:30:28;;;;;;;3.60;3.13;;;18.30;99.90;;;;;;4969937;28;20226;-82
2023/05/13 10:32:53;;;;;;;6.77;2.90;;;18.50;99.90;;;;;;4948141;28;20478;-83
2023/05/13 10:35:22;;;;;;;3.03;2.73;;;18.50;99.90;;;;;;4967177;28;20443;-82
2023/05/13 10:38:07;;;;;;;3.67;2.87;;;18.50;99.90;;;;;;4968054;28;20702;-84
2023/05/13 10:40:54;;;;;;;3.40;2.70;;;18.30;99.90;;;;;;4963450;28;22671;-84
2023/05/13 10:43:27;;;;;;;3.13;2.70;;;18.10;99.90;;;;;;4951664;28;20448;-83
2023/05/13 10:46:01;;;;;;;3.97;2.97;;;18.10;99.90;;;;;;4966329;28;20478;-83
2023/05/13 10:48:41;;;;;;;2.43;2.10;;;17.70;99.90;;;;;;4962636;28;20475;-84
2023/05/13 10:51:08;;;;;;;3.53;2.67;;;17.70;99.90;;;;;;4963909;28;20494;-83
2023/05/13 10:53:45;;;;;;;3.33;2.73;;;17.50;99.90;;;;;;4971624;28;20435;-82
2023/05/13 10:56:11;;;;;;;6.57;3.70;;;17.30;99.90;;;;;;4971827;28;20430;-82
2023/05/13 10:58:37;;;;;;;5.30;3.60;;;17.40;99.90;;;;;;4969429;28;20954;-83
2023/05/13 11:01:14;;;;;;;7.00;3.03;;;17.70;99.90;;;;;;4952786;28;20312;-84
2023/05/13 11:03:40;;;;;;;4.10;3.60;;;17.50;99.90;;;;;;4966949;28;20422;-83
2023/05/13 11:06:12;;;;;;;3.90;3.03;;;17.30;99.90;;;;;;4969342;28;20461;-84
2023/05/13 11:08:39;;;;;;;3.97;2.80;;;16.90;99.90;;;;;;4954283;28;20490;-83
2023/05/13 11:11:21;;;;;;;5.60;3.63;;;16.70;99.90;;;;;;4956611;28;20951;-83
2023/05/13 11:13:49;;;;;;;4.50;3.60;;;16.80;99.90;;;;;;4974067;28;20471;-83
2023/05/13 11:16:14;;;;;;;6.87;3.13;;;16.70;99.90;;;;;;4971542;28;20459;-83
2023/05/13 11:18:40;;;;;;;3.57;3.27;;;16.60;99.90;;;;;;4969853;28;20909;-82
2023/05/13 11:21:07;;;;;;;4.83;3.33;;;16.60;99.90;;;;;;4969637;28;20833;-83
2023/05/13 11:23:48;;;;;;;3.13;2.83;;;16.70;99.90;;;;;;4970068;28;20628;-84
2023/05/13 11:26:15;;;;;;;4.23;3.60;;;16.90;99.90;;;;;;4970397;28;20490;-83
2023/05/13 11:28:58;;;;;;;16.23;4.43;;;17.30;99.90;;;;;;4944127;28;20467;-83
2023/05/13 11:31:24;;;;;;;4.57;3.50;;;17.90;99.90;;;;;;4967451;28;20434;-83
2023/05/13 11:34:10;;;;;;;5.00;3.23;;;18.10;99.90;;;;;;4951968;28;20443;-83
2023/05/13 11:36:37;;;;;;;5.70;3.63;;;17.90;99.90;;;;;;4973175;28;20474;-83
2023/05/13 11:39:09;;;;;;;2.90;2.70;;;17.80;99.90;;;;;;4971403;28;20471;-83
2023/05/13 11:41:36;;;;;;;3.00;2.50;;;18.30;99.90;;;;;;4947601;28;20509;-83
2023/05/13 11:44:04;;;;;;;3.20;2.70;;;18.60;99.90;;;;;;4947349;28;20434;-83
2023/05/13 11:46:30;;;;;;;6.67;3.43;;;18.80;99.90;;;;;;4971223;28;20550;-83
2023/05/13 11:48:56;;;;;;;3.60;2.20;;;18.80;99.90;;;;;;4967091;28;20550;-83
2023/05/13 11:51:21;;;;;;;3.03;2.67;;;18.80;99.90;;;;;;4944387;28;20184;-83
2023/05/13 11:53:47;;;;;;;2.80;2.00;;;18.10;99.90;;;;;;4970508;28;20179;-82
2023/05/13 11:56:13;;;;;;;4.57;2.77;;;17.60;99.90;;;;;;4962963;28;20183;-83
2023/05/13 11:58:38;;;;;;;4.07;2.47;;;17.10;99.90;;;;;;4969118;28;20227;-86
2023/05/13 12:01:04;;;;;;;3.60;2.63;;;16.50;99.90;;;;;;4966922;28;20614;-84
2023/05/13 12:03:29;;;;;;;5.10;3.60;;;16.20;99.90;;;;;;4957202;28;20239;-84
2023/05/13 12:06:02;;;;;;;3.93;3.40;;;15.90;99.90;;;;;;4966983;28;20180;-83
2023/05/13 12:08:28;;;;;;;4.87;3.60;;;15.70;99.90;;;;;;4973264;28;20203;-84
2023/05/13 12:10:54;;;;;;;3.93;3.20;;;15.60;99.90;;;;;;4966179;28;20427;-82
2023/05/13 12:13:20;;;;;;;4.10;3.27;;;15.80;99.90;;;;;;4969252;28;20830;-83
2023/05/13 12:15:47;;;;;;;6.93;4.70;;;16.10;99.90;;;;;;4960169;28;20176;-84
2023/05/13 12:18:13;;;;;;;9.20;3.20;;;16.30;99.90;;;;;;4967290;28;20463;-84
2023/05/13 12:20:38;;;;;;;4.00;2.83;;;16.50;99.90;;;;;;4968918;28;20467;-83
2023/05/13 12:23:05;;;;;;;3.20;2.90;;;16.30;99.90;;;;;;4952162;28;20176;-83
2023/05/13 12:25:37;;;;;;;5.37;2.60;;;16.40;99.90;;;;;;4972199;28;20461;-83
2023/05/13 12:28:22;;;;;;;4.47;3.27;;;16.40;99.90;;;;;;4966534;28;21123;-83
2023/05/13 12:30:52;;;;;;;2.80;2.57;;;16.70;99.90;;;;;;4973038;28;20546;-83
2023/05/13 12:33:23;;;;;;;3.40;2.93;;;16.60;99.90;;;;;;4964292;28;20435;-83
2023/05/13 12:35:51;;;;;;;4.53;3.07;;;16.70;99.90;;;;;;4977898;28;20431;-83
2023/05/13 12:38:18;;;;;;;2.67;2.47;;;17.30;99.90;;;;;;4950574;28;20561;-83
2023/05/13 12:40:45;;;;;;;4.40;2.87;;;17.70;99.90;;;;;;4955188;28;20836;-83
2023/05/13 12:43:12;;;;;;;2.73;2.07;;;18.10;99.90;;;;;;4968464;28;20509;-83
2023/05/13 12:45:39;;;;;;;4.20;3.50;;;18.50;99.90;;;;;;4965612;28;21171;-83
2023/05/13 12:48:05;;;;;;;3.93;3.00;;;19.30;99.90;;;;;;4958780;23;20509;-91
2023/05/13 12:50:31;;;;;;;3.70;2.90;;;;;;;;;;4949651;28;20479;-90
2023/05/13 12:52:58;;;;;;;2.80;2.43;;;;;;;;;;4960020;28;20870;-92
2023/05/13 12:55:26;;;;;;;4.87;3.27;;;;;;;;;;4940584;28;20546;-91
2023/05/13 12:57:59;;;;;;;2.83;2.20;;;20.50;99.90;;;;;;4923067;28;20603;-91
2023/05/13 13:00:25;;;;;;;3.60;2.33;;;20.50;99.90;;;;;;4921958;28;21438;-90
2023/05/13 13:02:52;;;;;;;3.77;2.43;;;;;;;;;;4920249;28;20483;-90
2023/05/13 13:05:22;;;;;;;3.93;2.40;;;19.90;99.90;;;;;;4929578;28;20431;-90
2023/05/13 13:07:48;;;;;;;3.97;2.20;;;19.70;99.90;;;;;;4935644;28;20483;-87
2023/05/13 13:10:13;;;;;;;2.73;2.30;;;19.60;99.90;;;;;;4931800;29;20464;-89
2023/05/13 13:12:39;;;;;;;2.30;2.10;;;19.50;99.90;;;;;;4919525;29;20312;-89
2023/05/13 13:15:06;;;;;;;3.43;2.27;;;19.60;99.90;;;;;;4932166;28;20196;-89
2023/05/13 13:17:32;;;;;;;3.97;2.47;;;19.90;99.90;;;;;;4927039;28;20440;-89